sensor_id;sensor_type;location;lat;lon;timestamp;P1;durP1;ratioP1;P2;durP2;ratioP2
16228;SDS011;8222;51.462;12.630;2022-12-05T00:01:46;76.68;;;39.63;;
16228;SDS011;8222;51.462;12.630;2022-12-05T00:04:15;92.93;;;46.63;;
16228;SDS011;8222;51.462;12.630;2022-12-05T00:06:41;90.23;;;45.97;;
16228;SDS011;8222;51.462;12.630;2022-12-05T00:09:08;94.32;;;46.10;;
16228;SDS011;8222;51.462;12.630;2022-12-05T00:11:36;100.80;;;47.53;;
16228;SDS011;8222;51.462;12.630;2022-12-05T00:14:04;79.80;;;40.60;;
16228;SDS011;8222;51.462;12.630;2022-12-05T00:16:35;97.88;;;47.08;;
16228;SDS011;8222;51.462;12.630;2022-12-05T00:19:03;90.60;;;44.15;;
16228;SDS011;8222;51.462;12.630;2022-12-05T00:21:31;92.03;;;47.72;;
16228;SDS011;8222;51.462;12.630;2022-12-05T00:23:59;86.45;;;45.92;;
16228;SDS011;8222;51.462;12.630;2022-12-05T00:26:29;86.03;;;44.08;;
16228;SDS011;8222;51.462;12.630;2022-12-05T00:28:55;88.43;;;48.00;;
16228;SDS011;8222;51.462;12.630;2022-12-05T00:31:21;80.77;;;43.03;;
16228;SDS011;8222;51.462;12.630;2022-12-05T00:33:49;77.38;;;38.85;;
16228;SDS011;8222;51.462;12.630;2022-12-05T00:36:19;73.57;;;40.08;;
16228;SDS011;8222;51.462;12.630;2022-12-05T00:38:46;85.30;;;43.22;;
16228;SDS011;8222;51.462;12.630;2022-12-05T00:41:14;77.75;;;42.83;;
16228;SDS011;8222;51.462;12.630;2022-12-05T00:43:41;84.90;;;43.40;;
16228;SDS011;8222;51.462;12.630;2022-12-05T00:46:08;74.97;;;38.47;;
16228;SDS011;8222;51.462;12.630;2022-12-05T00:48:35;74.10;;;39.63;;
16228;SDS011;8222;51.462;12.630;2022-12-05T00:51:21;75.20;;;41.47;;
16228;SDS011;8222;51.462;12.630;2022-12-05T00:53:52;80.15;;;42.25;;
16228;SDS011;8222;51.462;12.630;2022-12-05T00:56:20;74.38;;;42.75;;
16228;SDS011;8222;51.462;12.630;2022-12-05T00:58:47;71.63;;;40.53;;
16228;SDS011;8222;51.462;12.630;2022-12-05T01:01:16;77.75;;;42.15;;
16228;SDS011;8222;51.462;12.630;2022-12-05T01:03:42;75.97;;;40.88;;
16228;SDS011;8222;51.462;12.630;2022-12-05T01:06:09;67.07;;;37.72;;
16228;SDS011;8222;51.462;12.630;2022-12-05T01:08:35;66.68;;;37.53;;
16228;SDS011;8222;51.462;12.630;2022-12-05T01:11:01;71.60;;;38.63;;
16228;SDS011;8222;51.462;12.630;2022-12-05T01:13:28;71.13;;;40.10;;
16228;SDS011;8222;51.462;12.630;2022-12-05T01:15:54;66.40;;;39.10;;
16228;SDS011;8222;51.462;12.630;2022-12-05T01:18:21;56.67;;;34.67;;
16228;SDS011;8222;51.462;12.630;2022-12-05T01:20:48;62.13;;;36.70;;
16228;SDS011;8222;51.462;12.630;2022-12-05T01:23:16;55.67;;;32.30;;
16228;SDS011;8222;51.462;12.630;2022-12-05T01:25:43;64.60;;;37.03;;
16228;SDS011;8222;51.462;12.630;2022-12-05T01:28:11;58.75;;;34.55;;
16228;SDS011;8222;51.462;12.630;2022-12-05T01:30:38;58.28;;;34.47;;
16228;SDS011;8222;51.462;12.630;2022-12-05T01:33:07;65.30;;;37.28;;
16228;SDS011;8222;51.462;12.630;2022-12-05T01:35:34;60.40;;;36.03;;
16228;SDS011;8222;51.462;12.630;2022-12-05T01:38:01;50.63;;;31.85;;
16228;SDS011;8222;51.462;12.630;2022-12-05T01:40:27;56.50;;;35.17;;
16228;SDS011;8222;51.462;12.630;2022-12-05T01:42:52;56.97;;;33.13;;
16228;SDS011;8222;51.462;12.630;2022-12-05T01:45:23;56.50;;;33.85;;
16228;SDS011;8222;51.462;12.630;2022-12-05T01:47:56;53.63;;;32.88;;
16228;SDS011;8222;51.462;12.630;2022-12-05T01:50:26;56.50;;;33.10;;
16228;SDS011;8222;51.462;12.630;2022-12-05T01:52:51;53.67;;;33.07;;
16228;SDS011;8222;51.462;12.630;2022-12-05T01:55:19;52.97;;;33.65;;
16228;SDS011;8222;51.462;12.630;2022-12-05T01:57:45;56.93;;;34.57;;
16228;SDS011;8222;51.462;12.630;2022-12-05T02:00:14;47.97;;;31.20;;
16228;SDS011;8222;51.462;12.630;2022-12-05T02:02:43;53.97;;;34.08;;
16228;SDS011;8222;51.462;12.630;2022-12-05T02:05:21;54.38;;;34.83;;
16228;SDS011;8222;51.462;12.630;2022-12-05T02:07:58;49.20;;;32.10;;
16228;SDS011;8222;51.462;12.630;2022-12-05T02:10:27;48.15;;;32.60;;
16228;SDS011;8222;51.462;12.630;2022-12-05T02:13:11;52.63;;;34.40;;
16228;SDS011;8222;51.462;12.630;2022-12-05T02:16:19;50.75;;;33.65;;
16228;SDS011;8222;51.462;12.630;2022-12-05T02:21:27;48.17;;;33.00;;
16228;SDS011;8222;51.462;12.630;2022-12-05T02:35:02;44.20;;;30.60;;
16228;SDS011;8222;51.462;12.630;2022-12-05T02:40:46;46.25;;;32.05;;
16228;SDS011;8222;51.462;12.630;2022-12-05T02:43:31;47.72;;;30.05;;
16228;SDS011;8222;51.462;12.630;2022-12-05T02:46:12;47.63;;;32.10;;
16228;SDS011;8222;51.462;12.630;2022-12-05T02:48:41;45.28;;;30.58;;
16228;SDS011;8222;51.462;12.630;2022-12-05T02:51:10;44.08;;;30.83;;
16228;SDS011;8222;51.462;12.630;2022-12-05T02:53:41;44.08;;;31.50;;
16228;SDS011;8222;51.462;12.630;2022-12-05T02:56:09;44.85;;;29.02;;
16228;SDS011;8222;51.462;12.630;2022-12-05T02:58:38;44.90;;;30.38;;
16228;SDS011;8222;51.462;12.630;2022-12-05T03:01:12;43.20;;;30.13;;
16228;SDS011;8222;51.462;12.630;2022-12-05T03:03:38;43.97;;;30.90;;
16228;SDS011;8222;51.462;12.630;2022-12-05T03:06:12;42.92;;;28.05;;
16228;SDS011;8222;51.462;12.630;2022-12-05T03:08:41;36.67;;;23.73;;
16228;SDS011;8222;51.462;12.630;2022-12-05T03:11:10;43.05;;;27.42;;
16228;SDS011;8222;51.462;12.630;2022-12-05T03:13:53;43.20;;;29.30;;
16228;SDS011;8222;51.462;12.630;2022-12-05T03:16:22;43.75;;;29.33;;
16228;SDS011;8222;51.462;12.630;2022-12-05T03:19:00;44.63;;;30.60;;
16228;SDS011;8222;51.462;12.630;2022-12-05T03:21:34;44.05;;;30.17;;
16228;SDS011;8222;51.462;12.630;2022-12-05T03:24:10;40.78;;;27.52;;
16228;SDS011;8222;51.462;12.630;2022-12-05T03:35:12;44.67;;;28.15;;
16228;SDS011;8222;51.462;12.630;2022-12-05T03:40:31;48.83;;;31.57;;
16228;SDS011;8222;51.462;12.630;2022-12-05T03:43:18;47.27;;;31.60;;
16228;SDS011;8222;51.462;12.630;2022-12-05T03:48:26;49.80;;;32.55;;
16228;SDS011;8222;51.462;12.630;2022-12-05T03:50:58;48.65;;;31.55;;
16228;SDS011;8222;51.462;12.630;2022-12-05T03:53:30;51.03;;;33.67;;
16228;SDS011;8222;51.462;12.630;2022-12-05T03:56:06;49.60;;;32.15;;
16228;SDS011;8222;51.462;12.630;2022-12-05T03:58:36;50.47;;;30.17;;
16228;SDS011;8222;51.462;12.630;2022-12-05T04:01:07;51.83;;;33.77;;
16228;SDS011;8222;51.462;12.630;2022-12-05T04:03:36;55.13;;;34.80;;
16228;SDS011;8222;51.462;12.630;2022-12-05T04:08:57;53.53;;;32.30;;
16228;SDS011;8222;51.462;12.630;2022-12-05T04:11:26;57.88;;;34.05;;
16228;SDS011;8222;51.462;12.630;2022-12-05T04:13:58;55.60;;;35.40;;
16228;SDS011;8222;51.462;12.630;2022-12-05T04:19:39;56.50;;;33.90;;
16228;SDS011;8222;51.462;12.630;2022-12-05T04:22:32;56.13;;;34.65;;
16228;SDS011;8222;51.462;12.630;2022-12-05T04:25:00;56.20;;;32.95;;
16228;SDS011;8222;51.462;12.630;2022-12-05T04:27:58;54.03;;;33.97;;
16228;SDS011;8222;51.462;12.630;2022-12-05T04:30:39;55.80;;;34.83;;
16228;SDS011;8222;51.462;12.630;2022-12-05T04:38:39;51.65;;;32.47;;
16228;SDS011;8222;51.462;12.630;2022-12-05T04:41:21;56.07;;;33.30;;
16228;SDS011;8222;51.462;12.630;2022-12-05T04:43:51;55.10;;;34.15;;
16228;SDS011;8222;51.462;12.630;2022-12-05T04:46:19;57.10;;;33.75;;
16228;SDS011;8222;51.462;12.630;2022-12-05T04:48:48;55.83;;;32.13;;
16228;SDS011;8222;51.462;12.630;2022-12-05T04:51:23;56.63;;;34.45;;
16228;SDS011;8222;51.462;12.630;2022-12-05T04:53:56;47.97;;;30.27;;
16228;SDS011;8222;51.462;12.630;2022-12-05T04:56:30;56.40;;;32.40;;
16228;SDS011;8222;51.462;12.630;2022-12-05T04:59:00;57.72;;;35.17;;
16228;SDS011;8222;51.462;12.630;2022-12-05T05:07:10;59.85;;;36.00;;
16228;SDS011;8222;51.462;12.630;2022-12-05T05:09:40;55.53;;;33.83;;
16228;SDS011;8222;51.462;12.630;2022-12-05T05:12:06;53.22;;;34.67;;
16228;SDS011;8222;51.462;12.630;2022-12-05T05:14:34;49.17;;;32.47;;
16228;SDS011;8222;51.462;12.630;2022-12-05T05:17:00;57.22;;;33.78;;
16228;SDS011;8222;51.462;12.630;2022-12-05T05:19:25;56.17;;;34.42;;
16228;SDS011;8222;51.462;12.630;2022-12-05T05:21:53;51.20;;;31.42;;
16228;SDS011;8222;51.462;12.630;2022-12-05T05:24:19;50.43;;;30.40;;
16228;SDS011;8222;51.462;12.630;2022-12-05T05:26:50;53.65;;;34.03;;
16228;SDS011;8222;51.462;12.630;2022-12-05T05:29:18;53.60;;;34.28;;
16228;SDS011;8222;51.462;12.630;2022-12-05T05:31:43;50.78;;;33.72;;
16228;SDS011;8222;51.462;12.630;2022-12-05T05:34:09;48.97;;;32.03;;
16228;SDS011;8222;51.462;12.630;2022-12-05T05:36:40;49.63;;;31.45;;
16228;SDS011;8222;51.462;12.630;2022-12-05T05:39:09;51.17;;;33.47;;
16228;SDS011;8222;51.462;12.630;2022-12-05T05:41:36;51.70;;;33.40;;
16228;SDS011;8222;51.462;12.630;2022-12-05T05:44:02;49.70;;;32.67;;
16228;SDS011;8222;51.462;12.630;2022-12-05T05:46:31;51.22;;;31.75;;
16228;SDS011;8222;51.462;12.630;2022-12-05T05:48:58;50.38;;;31.25;;
16228;SDS011;8222;51.462;12.630;2022-12-05T05:51:24;52.03;;;33.87;;
16228;SDS011;8222;51.462;12.630;2022-12-05T05:53:51;46.13;;;28.48;;
16228;SDS011;8222;51.462;12.630;2022-12-05T05:56:20;41.85;;;30.05;;
16228;SDS011;8222;51.462;12.630;2022-12-05T05:58:46;52.10;;;31.85;;
16228;SDS011;8222;51.462;12.630;2022-12-05T06:01:14;47.60;;;30.80;;
16228;SDS011;8222;51.462;12.630;2022-12-05T06:03:41;47.97;;;31.88;;
16228;SDS011;8222;51.462;12.630;2022-12-05T06:06:08;48.33;;;30.47;;
16228;SDS011;8222;51.462;12.630;2022-12-05T06:08:37;63.97;;;39.90;;
16228;SDS011;8222;51.462;12.630;2022-12-05T06:11:04;51.88;;;37.58;;
16228;SDS011;8222;51.462;12.630;2022-12-05T06:13:34;76.95;;;47.67;;
16228;SDS011;8222;51.462;12.630;2022-12-05T06:16:00;51.40;;;34.20;;
16228;SDS011;8222;51.462;12.630;2022-12-05T06:18:32;44.35;;;30.02;;
16228;SDS011;8222;51.462;12.630;2022-12-05T06:20:58;46.90;;;30.13;;
16228;SDS011;8222;51.462;12.630;2022-12-05T06:23:27;47.85;;;31.80;;
16228;SDS011;8222;51.462;12.630;2022-12-05T06:25:53;48.42;;;32.75;;
16228;SDS011;8222;51.462;12.630;2022-12-05T06:28:22;53.85;;;33.75;;
16228;SDS011;8222;51.462;12.630;2022-12-05T06:30:51;51.33;;;33.35;;
16228;SDS011;8222;51.462;12.630;2022-12-05T06:33:17;50.53;;;33.80;;
16228;SDS011;8222;51.462;12.630;2022-12-05T06:35:45;53.35;;;34.72;;
16228;SDS011;8222;51.462;12.630;2022-12-05T06:38:11;49.67;;;31.92;;
16228;SDS011;8222;51.462;12.630;2022-12-05T06:40:40;48.70;;;32.55;;
16228;SDS011;8222;51.462;12.630;2022-12-05T06:43:10;47.63;;;31.77;;
16228;SDS011;8222;51.462;12.630;2022-12-05T06:45:39;91.15;;;61.17;;
16228;SDS011;8222;51.462;12.630;2022-12-05T06:48:05;76.50;;;50.67;;
16228;SDS011;8222;51.462;12.630;2022-12-05T06:50:32;70.13;;;48.47;;
16228;SDS011;8222;51.462;12.630;2022-12-05T06:52:58;47.70;;;34.05;;
16228;SDS011;8222;51.462;12.630;2022-12-05T06:55:23;47.87;;;33.03;;
16228;SDS011;8222;51.462;12.630;2022-12-05T06:57:49;46.60;;;31.97;;
16228;SDS011;8222;51.462;12.630;2022-12-05T07:00:17;50.78;;;32.97;;
16228;SDS011;8222;51.462;12.630;2022-12-05T07:03:01;48.22;;;32.63;;
16228;SDS011;8222;51.462;12.630;2022-12-05T07:05:28;50.60;;;32.58;;
16228;SDS011;8222;51.462;12.630;2022-12-05T07:07:54;43.15;;;29.00;;
16228;SDS011;8222;51.462;12.630;2022-12-05T07:10:20;45.55;;;31.88;;
16228;SDS011;8222;51.462;12.630;2022-12-05T07:12:47;45.97;;;30.48;;
16228;SDS011;8222;51.462;12.630;2022-12-05T07:15:16;50.70;;;32.22;;
16228;SDS011;8222;51.462;12.630;2022-12-05T07:17:44;45.50;;;29.37;;
16228;SDS011;8222;51.462;12.630;2022-12-05T07:20:10;42.17;;;28.17;;
16228;SDS011;8222;51.462;12.630;2022-12-05T07:22:36;57.00;;;44.08;;
16228;SDS011;8222;51.462;12.630;2022-12-05T07:25:02;71.95;;;59.08;;
16228;SDS011;8222;51.462;12.630;2022-12-05T07:27:28;57.47;;;44.72;;
16228;SDS011;8222;51.462;12.630;2022-12-05T07:29:54;53.37;;;40.63;;
16228;SDS011;8222;51.462;12.630;2022-12-05T07:32:20;181.20;;;140.37;;
16228;SDS011;8222;51.462;12.630;2022-12-05T07:34:47;92.68;;;64.68;;
16228;SDS011;8222;51.462;12.630;2022-12-05T07:37:16;60.53;;;40.93;;
16228;SDS011;8222;51.462;12.630;2022-12-05T07:39:45;52.45;;;36.70;;
16228;SDS011;8222;51.462;12.630;2022-12-05T07:42:11;46.35;;;32.35;;
16228;SDS011;8222;51.462;12.630;2022-12-05T07:44:37;49.50;;;31.95;;
16228;SDS011;8222;51.462;12.630;2022-12-05T07:47:05;47.97;;;31.25;;
16228;SDS011;8222;51.462;12.630;2022-12-05T07:49:31;47.72;;;32.80;;
16228;SDS011;8222;51.462;12.630;2022-12-05T07:51:57;38.72;;;27.10;;
16228;SDS011;8222;51.462;12.630;2022-12-05T07:54:22;46.90;;;30.58;;
16228;SDS011;8222;51.462;12.630;2022-12-05T07:56:48;49.83;;;33.20;;
16228;SDS011;8222;51.462;12.630;2022-12-05T07:59:13;46.00;;;32.20;;
16228;SDS011;8222;51.462;12.630;2022-12-05T08:01:39;53.40;;;33.70;;
16228;SDS011;8222;51.462;12.630;2022-12-05T08:04:05;50.65;;;34.28;;
16228;SDS011;8222;51.462;12.630;2022-12-05T08:06:32;52.03;;;34.53;;
16228;SDS011;8222;51.462;12.630;2022-12-05T08:08:58;52.88;;;32.45;;
16228;SDS011;8222;51.462;12.630;2022-12-05T08:11:28;49.40;;;34.53;;
16228;SDS011;8222;51.462;12.630;2022-12-05T08:13:55;48.43;;;29.67;;
16228;SDS011;8222;51.462;12.630;2022-12-05T08:16:25;50.80;;;33.50;;
16228;SDS011;8222;51.462;12.630;2022-12-05T08:18:56;55.17;;;38.23;;
16228;SDS011;8222;51.462;12.630;2022-12-05T08:21:23;52.33;;;37.53;;
16228;SDS011;8222;51.462;12.630;2022-12-05T08:23:49;50.38;;;34.58;;
16228;SDS011;8222;51.462;12.630;2022-12-05T08:26:16;45.25;;;30.80;;
16228;SDS011;8222;51.462;12.630;2022-12-05T08:28:45;50.95;;;38.10;;
16228;SDS011;8222;51.462;12.630;2022-12-05T08:31:15;54.53;;;39.63;;
16228;SDS011;8222;51.462;12.630;2022-12-05T08:33:42;48.95;;;35.95;;
16228;SDS011;8222;51.462;12.630;2022-12-05T08:36:10;51.67;;;37.83;;
16228;SDS011;8222;51.462;12.630;2022-12-05T08:38:38;51.22;;;33.90;;
16228;SDS011;8222;51.462;12.630;2022-12-05T08:41:04;45.33;;;32.87;;
16228;SDS011;8222;51.462;12.630;2022-12-05T08:43:33;46.88;;;34.17;;
16228;SDS011;8222;51.462;12.630;2022-12-05T08:46:00;44.35;;;32.13;;
16228;SDS011;8222;51.462;12.630;2022-12-05T08:48:27;49.42;;;34.08;;
16228;SDS011;8222;51.462;12.630;2022-12-05T08:50:53;46.95;;;32.63;;
16228;SDS011;8222;51.462;12.630;2022-12-05T08:53:22;48.40;;;33.00;;
16228;SDS011;8222;51.462;12.630;2022-12-05T08:55:47;49.47;;;31.90;;
16228;SDS011;8222;51.462;12.630;2022-12-05T08:58:15;46.95;;;31.23;;
16228;SDS011;8222;51.462;12.630;2022-12-05T09:00:41;46.35;;;31.88;;
16228;SDS011;8222;51.462;12.630;2022-12-05T09:03:08;46.03;;;32.10;;
16228;SDS011;8222;51.462;12.630;2022-12-05T09:05:35;45.95;;;32.17;;
16228;SDS011;8222;51.462;12.630;2022-12-05T09:08:01;45.27;;;31.57;;
16228;SDS011;8222;51.462;12.630;2022-12-05T09:10:29;46.63;;;31.90;;
16228;SDS011;8222;51.462;12.630;2022-12-05T09:12:58;43.75;;;31.85;;
16228;SDS011;8222;51.462;12.630;2022-12-05T09:15:23;43.05;;;31.40;;
16228;SDS011;8222;51.462;12.630;2022-12-05T09:17:49;48.08;;;32.55;;
16228;SDS011;8222;51.462;12.630;2022-12-05T09:20:17;44.63;;;32.45;;
16228;SDS011;8222;51.462;12.630;2022-12-05T09:22:42;44.00;;;30.77;;
16228;SDS011;8222;51.462;12.630;2022-12-05T09:25:08;43.22;;;29.92;;
16228;SDS011;8222;51.462;12.630;2022-12-05T09:27:34;48.77;;;31.87;;
16228;SDS011;8222;51.462;12.630;2022-12-05T09:30:01;41.83;;;31.13;;
16228;SDS011;8222;51.462;12.630;2022-12-05T09:32:31;48.47;;;32.45;;
16228;SDS011;8222;51.462;12.630;2022-12-05T09:34:56;47.72;;;32.80;;
16228;SDS011;8222;51.462;12.630;2022-12-05T09:37:27;45.73;;;32.13;;
16228;SDS011;8222;51.462;12.630;2022-12-05T09:39:52;46.80;;;31.13;;
16228;SDS011;8222;51.462;12.630;2022-12-05T09:52:52;34.30;;;25.83;;
16228;SDS011;8222;51.462;12.630;2022-12-05T10:00:46;29.23;;;22.40;;
16228;SDS011;8222;51.462;12.630;2022-12-05T10:06:14;31.90;;;23.70;;
16228;SDS011;8222;51.462;12.630;2022-12-05T10:14:08;26.42;;;19.52;;
16228;SDS011;8222;51.462;12.630;2022-12-05T10:16:46;31.15;;;23.05;;
16228;SDS011;8222;51.462;12.630;2022-12-05T10:19:15;26.27;;;22.17;;
16228;SDS011;8222;51.462;12.630;2022-12-05T10:21:50;29.02;;;22.60;;
16228;SDS011;8222;51.462;12.630;2022-12-05T10:24:35;29.73;;;20.13;;
16228;SDS011;8222;51.462;12.630;2022-12-05T10:27:06;28.25;;;21.55;;
16228;SDS011;8222;51.462;12.630;2022-12-05T10:29:43;30.48;;;21.33;;
16228;SDS011;8222;51.462;12.630;2022-12-05T10:32:25;25.42;;;20.83;;
16228;SDS011;8222;51.462;12.630;2022-12-05T10:34:59;26.15;;;21.20;;
16228;SDS011;8222;51.462;12.630;2022-12-05T10:37:37;27.30;;;20.40;;
16228;SDS011;8222;51.462;12.630;2022-12-05T10:40:10;27.33;;;19.15;;
16228;SDS011;8222;51.462;12.630;2022-12-05T10:42:39;28.73;;;20.90;;
16228;SDS011;8222;51.462;12.630;2022-12-05T10:45:06;29.65;;;20.75;;
16228;SDS011;8222;51.462;12.630;2022-12-05T10:47:37;26.97;;;19.23;;
16228;SDS011;8222;51.462;12.630;2022-12-05T10:50:07;25.15;;;19.05;;
16228;SDS011;8222;51.462;12.630;2022-12-05T10:52:45;25.25;;;18.95;;
16228;SDS011;8222;51.462;12.630;2022-12-05T10:55:13;30.27;;;19.53;;
16228;SDS011;8222;51.462;12.630;2022-12-05T10:57:41;31.73;;;23.33;;
16228;SDS011;8222;51.462;12.630;2022-12-05T11:00:13;29.73;;;19.95;;
16228;SDS011;8222;51.462;12.630;2022-12-05T11:02:41;29.90;;;20.70;;
16228;SDS011;8222;51.462;12.630;2022-12-05T11:05:09;29.42;;;21.02;;
16228;SDS011;8222;51.462;12.630;2022-12-05T11:10:21;26.08;;;19.98;;
16228;SDS011;8222;51.462;12.630;2022-12-05T11:12:54;29.00;;;21.55;;
16228;SDS011;8222;51.462;12.630;2022-12-05T11:15:22;26.38;;;21.10;;
16228;SDS011;8222;51.462;12.630;2022-12-05T11:17:51;28.67;;;21.88;;
16228;SDS011;8222;51.462;12.630;2022-12-05T11:22:45;26.25;;;20.95;;
16228;SDS011;8222;51.462;12.630;2022-12-05T11:25:27;27.20;;;22.30;;
16228;SDS011;8222;51.462;12.630;2022-12-05T11:27:56;28.45;;;21.70;;
16228;SDS011;8222;51.462;12.630;2022-12-05T11:30:56;27.08;;;21.23;;
16228;SDS011;8222;51.462;12.630;2022-12-05T11:33:26;26.90;;;21.10;;
16228;SDS011;8222;51.462;12.630;2022-12-05T11:35:54;37.30;;;25.85;;
16228;SDS011;8222;51.462;12.630;2022-12-05T11:38:28;32.70;;;25.42;;
16228;SDS011;8222;51.462;12.630;2022-12-05T11:44:07;26.75;;;20.23;;
16228;SDS011;8222;51.462;12.630;2022-12-05T11:52:51;27.85;;;22.00;;
16228;SDS011;8222;51.462;12.630;2022-12-05T12:01:21;24.70;;;20.55;;
16228;SDS011;8222;51.462;12.630;2022-12-05T12:09:21;24.23;;;19.20;;
16228;SDS011;8222;51.462;12.630;2022-12-05T12:14:52;22.35;;;17.20;;
16228;SDS011;8222;51.462;12.630;2022-12-05T12:20:12;19.43;;;16.30;;
16228;SDS011;8222;51.462;12.630;2022-12-05T12:23:16;24.45;;;19.42;;
16228;SDS011;8222;51.462;12.630;2022-12-05T12:26:19;24.60;;;19.57;;
16228;SDS011;8222;51.462;12.630;2022-12-05T12:37:07;25.45;;;19.00;;
16228;SDS011;8222;51.462;12.630;2022-12-05T12:45:50;24.83;;;18.70;;
16228;SDS011;8222;51.462;12.630;2022-12-05T12:48:28;24.65;;;18.35;;
16228;SDS011;8222;51.462;12.630;2022-12-05T12:51:04;22.13;;;17.97;;
16228;SDS011;8222;51.462;12.630;2022-12-05T12:59:05;19.67;;;15.43;;
16228;SDS011;8222;51.462;12.630;2022-12-05T13:05:00;20.88;;;18.27;;
16228;SDS011;8222;51.462;12.630;2022-12-05T13:07:42;25.58;;;20.63;;
16228;SDS011;8222;51.462;12.630;2022-12-05T13:10:28;23.50;;;19.63;;
16228;SDS011;8222;51.462;12.630;2022-12-05T13:12:58;21.80;;;19.30;;
16228;SDS011;8222;51.462;12.630;2022-12-05T13:15:49;22.33;;;19.23;;
16228;SDS011;8222;51.462;12.630;2022-12-05T13:18:20;21.75;;;19.48;;
16228;SDS011;8222;51.462;12.630;2022-12-05T13:20:53;20.23;;;17.65;;
16228;SDS011;8222;51.462;12.630;2022-12-05T13:23:22;16.77;;;14.97;;
16228;SDS011;8222;51.462;12.630;2022-12-05T13:25:51;21.10;;;17.30;;
16228;SDS011;8222;51.462;12.630;2022-12-05T13:30:56;20.70;;;17.05;;
16228;SDS011;8222;51.462;12.630;2022-12-05T13:33:26;19.02;;;16.73;;
16228;SDS011;8222;51.462;12.630;2022-12-05T13:35:56;17.10;;;15.35;;
16228;SDS011;8222;51.462;12.630;2022-12-05T13:38:49;18.02;;;15.68;;
16228;SDS011;8222;51.462;12.630;2022-12-05T13:41:40;17.67;;;15.80;;
16228;SDS011;8222;51.462;12.630;2022-12-05T13:44:28;18.60;;;15.37;;
16228;SDS011;8222;51.462;12.630;2022-12-05T13:47:03;20.95;;;17.23;;
16228;SDS011;8222;51.462;12.630;2022-12-05T13:49:42;18.42;;;16.52;;
16228;SDS011;8222;51.462;12.630;2022-12-05T13:52:19;19.40;;;17.25;;
16228;SDS011;8222;51.462;12.630;2022-12-05T13:55:11;20.38;;;18.10;;
16228;SDS011;8222;51.462;12.630;2022-12-05T13:58:02;19.33;;;17.27;;
16228;SDS011;8222;51.462;12.630;2022-12-05T14:00:44;18.27;;;16.38;;
16228;SDS011;8222;51.462;12.630;2022-12-05T14:05:52;18.73;;;16.02;;
16228;SDS011;8222;51.462;12.630;2022-12-05T14:11:19;16.88;;;15.18;;
16228;SDS011;8222;51.462;12.630;2022-12-05T14:13:45;17.50;;;15.27;;
16228;SDS011;8222;51.462;12.630;2022-12-05T14:21:57;19.52;;;16.40;;
16228;SDS011;8222;51.462;12.630;2022-12-05T14:24:51;19.48;;;17.02;;
16228;SDS011;8222;51.462;12.630;2022-12-05T14:30:21;18.27;;;16.38;;
16228;SDS011;8222;51.462;12.630;2022-12-05T14:32:52;21.03;;;16.77;;
16228;SDS011;8222;51.462;12.630;2022-12-05T14:35:28;17.45;;;15.55;;
16228;SDS011;8222;51.462;12.630;2022-12-05T14:37:58;18.33;;;16.33;;
16228;SDS011;8222;51.462;12.630;2022-12-05T14:45:59;17.92;;;15.52;;
16228;SDS011;8222;51.462;12.630;2022-12-05T14:48:30;17.52;;;15.73;;
16228;SDS011;8222;51.462;12.630;2022-12-05T14:54:14;19.00;;;15.80;;
16228;SDS011;8222;51.462;12.630;2022-12-05T14:56:42;16.98;;;15.10;;
16228;SDS011;8222;51.462;12.630;2022-12-05T15:01:57;16.70;;;15.00;;
16228;SDS011;8222;51.462;12.630;2022-12-05T15:04:41;16.17;;;13.38;;
16228;SDS011;8222;51.462;12.630;2022-12-05T15:07:17;15.82;;;14.15;;
16228;SDS011;8222;51.462;12.630;2022-12-05T15:09:53;16.90;;;15.10;;
16228;SDS011;8222;51.462;12.630;2022-12-05T15:21:09;15.63;;;14.10;;
16228;SDS011;8222;51.462;12.630;2022-12-05T15:24:11;16.35;;;14.63;;
16228;SDS011;8222;51.462;12.630;2022-12-05T15:26:45;16.80;;;15.00;;
16228;SDS011;8222;51.462;12.630;2022-12-05T15:31:49;17.52;;;15.68;;
16228;SDS011;8222;51.462;12.630;2022-12-05T15:40:14;14.23;;;12.75;;
16228;SDS011;8222;51.462;12.630;2022-12-05T15:47:41;14.48;;;12.93;;
16228;SDS011;8222;51.462;12.630;2022-12-05T15:50:15;14.55;;;12.27;;
16228;SDS011;8222;51.462;12.630;2022-12-05T15:52:47;14.95;;;13.43;;
16228;SDS011;8222;51.462;12.630;2022-12-05T15:55:23;17.25;;;15.20;;
16228;SDS011;8222;51.462;12.630;2022-12-05T15:57:56;16.60;;;14.77;;
16228;SDS011;8222;51.462;12.630;2022-12-05T16:00:28;23.27;;;17.30;;
16228;SDS011;8222;51.462;12.630;2022-12-05T16:05:31;16.73;;;14.05;;
16228;SDS011;8222;51.462;12.630;2022-12-05T16:08:03;13.52;;;11.25;;
16228;SDS011;8222;51.462;12.630;2022-12-05T16:10:32;14.25;;;12.75;;
16228;SDS011;8222;51.462;12.630;2022-12-05T16:13:14;14.52;;;12.30;;
16228;SDS011;8222;51.462;12.630;2022-12-05T16:15:45;11.85;;;10.65;;
16228;SDS011;8222;51.462;12.630;2022-12-05T16:18:24;12.98;;;11.50;;
16228;SDS011;8222;51.462;12.630;2022-12-05T16:20:53;13.60;;;12.15;;
16228;SDS011;8222;51.462;12.630;2022-12-05T16:23:33;12.55;;;11.23;;
16228;SDS011;8222;51.462;12.630;2022-12-05T16:26:17;13.90;;;12.32;;
16228;SDS011;8222;51.462;12.630;2022-12-05T16:29:00;13.73;;;11.63;;
16228;SDS011;8222;51.462;12.630;2022-12-05T16:31:27;13.13;;;11.63;;
16228;SDS011;8222;51.462;12.630;2022-12-05T16:34:06;13.32;;;11.50;;
16228;SDS011;8222;51.462;12.630;2022-12-05T16:36:44;12.65;;;11.35;;
16228;SDS011;8222;51.462;12.630;2022-12-05T16:39:11;12.98;;;11.68;;
16228;SDS011;8222;51.462;12.630;2022-12-05T16:41:38;15.05;;;13.18;;
16228;SDS011;8222;51.462;12.630;2022-12-05T16:44:05;11.85;;;10.65;;
16228;SDS011;8222;51.462;12.630;2022-12-05T16:47:05;15.30;;;13.23;;
16228;SDS011;8222;51.462;12.630;2022-12-05T16:49:52;14.27;;;12.77;;
16228;SDS011;8222;51.462;12.630;2022-12-05T16:52:20;13.40;;;11.75;;
16228;SDS011;8222;51.462;12.630;2022-12-05T16:54:47;14.25;;;12.63;;
16228;SDS011;8222;51.462;12.630;2022-12-05T16:57:14;15.52;;;13.88;;
16228;SDS011;8222;51.462;12.630;2022-12-05T16:59:41;16.27;;;14.57;;
16228;SDS011;8222;51.462;12.630;2022-12-05T17:02:14;18.25;;;15.73;;
16228;SDS011;8222;51.462;12.630;2022-12-05T17:04:42;16.83;;;15.10;;
16228;SDS011;8222;51.462;12.630;2022-12-05T17:07:07;16.30;;;14.57;;
16228;SDS011;8222;51.462;12.630;2022-12-05T17:09:34;17.83;;;15.95;;
16228;SDS011;8222;51.462;12.630;2022-12-05T17:12:01;14.30;;;12.45;;
16228;SDS011;8222;51.462;12.630;2022-12-05T17:14:48;13.07;;;11.73;;
16228;SDS011;8222;51.462;12.630;2022-12-05T17:17:14;14.88;;;13.35;;
16228;SDS011;8222;51.462;12.630;2022-12-05T17:19:42;18.42;;;14.68;;
16228;SDS011;8222;51.462;12.630;2022-12-05T17:22:07;15.27;;;13.13;;
16228;SDS011;8222;51.462;12.630;2022-12-05T17:24:36;17.97;;;13.73;;
16228;SDS011;8222;51.462;12.630;2022-12-05T17:27:01;15.15;;;13.63;;
16228;SDS011;8222;51.462;12.630;2022-12-05T17:29:29;16.17;;;14.52;;
16228;SDS011;8222;51.462;12.630;2022-12-05T17:32:01;15.77;;;14.18;;
16228;SDS011;8222;51.462;12.630;2022-12-05T17:34:32;14.88;;;13.30;;
16228;SDS011;8222;51.462;12.630;2022-12-05T17:36:57;16.42;;;14.82;;
16228;SDS011;8222;51.462;12.630;2022-12-05T17:39:24;17.60;;;15.73;;
16228;SDS011;8222;51.462;12.630;2022-12-05T17:41:49;18.52;;;15.82;;
16228;SDS011;8222;51.462;12.630;2022-12-05T17:44:15;18.53;;;16.73;;